Pine Meadows, New York
Current Conditions -  °F | °C
As of 7:54 AM on Monday 22 Dec 2014 (Local Time) from KFZY Reporting Station
Overcast Overcast  
Wind Chill: 30°   Ceiling: 2300
Heat Index: 30°   Visibility: 10mi
Dew Point: 24°   Wind: 3mph
Humidity: 79%   Direction: 100°E
Pressure: 30.29"   Gusts: NA
Location:  43.4945°N, 75.9612°W
Report Text: KFZY 221254Z AUTO 10003KT 10SM OVC023 M01/M04 A3029 RMK AO2 SLP263 T10111044
Loading
Personal Weather Stations






























Interactive Weather Map New forecast layout! Learn more

10-Day Weather Forecast

Advertisements
Track Severe Weather on mobile